Time;durP1;ratioP1;P1;durP2;ratioP2;P2;SDS_P1;SDS_P2;PMS_P1;PMS_P2;Temp;Humidity;BMP_temperature;BMP_pressure;BME280_temperature;BME280_humidity;BME280_pressure;Samples;Min_cycle;Max_cycle;Signal;HPM_P1;HPM_P2
2023/10/01 00:00:20;;;;;;;9.33;5.90;;;;;;;;;;4898103;29;20214;-73
2023/10/01 00:02:48;;;;;;;8.27;5.70;;;;;;;;;;4899778;29;20202;-73
2023/10/01 00:05:14;;;;;;;8.70;5.33;;;;;;;;;;4899067;29;20187;-73
2023/10/01 00:07:42;;;;;;;8.60;5.87;;;;;;;;;;4898328;29;20213;-73
2023/10/01 00:10:12;;;;;;;9.90;6.13;;;;;;;;;;4898548;29;20206;-73
2023/10/01 00:12:44;;;;;;;7.93;5.60;;;;;;;;;;4897257;29;20643;-73
2023/10/01 00:15:14;;;;;;;9.60;6.20;;;;;;;;;;4899009;29;20195;-73
2023/10/01 00:17:41;;;;;;;10.23;6.57;;;;;;;;;;4895755;29;20218;-73
2023/10/01 00:20:18;;;;;;;9.40;6.40;;;;;;;;;;4896379;29;20215;-74
2023/10/01 00:22:50;;;;;;;9.70;6.07;;;;;;;;;;4897035;29;20183;-73
2023/10/01 00:25:17;;;;;;;9.53;6.43;;;;;;;;;;4898804;29;20195;-73
2023/10/01 00:27:44;;;;;;;9.73;6.30;;;;;;;;;;4894341;29;20194;-73
2023/10/01 00:30:11;;;;;;;9.80;6.23;;;;;;;;;;4888855;29;20218;-73
2023/10/01 00:32:38;;;;;;;9.43;6.13;;;;;;;;;;4900356;29;20191;-73
2023/10/01 00:35:05;;;;;;;8.17;5.93;;;;;;;;;;4896505;29;20218;-73
2023/10/01 00:37:32;;;;;;;7.90;5.77;;;;;;;;;;4896119;29;20643;-73
2023/10/01 00:39:59;;;;;;;9.20;6.23;;;;;;;;;;4891494;29;20207;-73
2023/10/01 00:42:27;;;;;;;10.53;6.20;;;;;;;;;;4896090;29;20272;-73
2023/10/01 00:44:53;;;;;;;13.27;6.20;;;;;;;;;;4912354;29;20187;-74
2023/10/01 00:47:21;;;;;;;11.33;6.57;;;;;;;;;;4895187;29;20191;-73
2023/10/01 00:49:47;;;;;;;7.67;5.73;;;;;;;;;;4895588;29;20211;-73
2023/10/01 00:52:14;;;;;;;9.77;6.10;;;;;;;;;;4895026;29;20604;-73
2023/10/01 00:54:40;;;;;;;9.40;6.30;;;;;;;;;;4894840;29;20187;-73
2023/10/01 00:57:07;;;;;;;9.87;6.47;;;;;;;;;;4900065;29;20536;-73
2023/10/01 00:59:33;;;;;;;9.07;5.80;;;;;;;;;;4897740;29;20199;-73
2023/10/01 01:02:00;;;;;;;10.47;6.53;;;;;;;;;;4898266;29;20258;-73
2023/10/01 01:04:36;;;;;;;10.37;6.30;;;;;;;;;;4898040;29;20684;-73
2023/10/01 01:07:14;;;;;;;9.13;6.03;;;;;;;;;;4897848;29;20215;-74
2023/10/01 01:09:43;;;;;;;9.40;5.90;;;;;;;;;;4878976;29;20246;-73
2023/10/01 01:12:10;;;;;;;9.00;6.10;;;;;;;;;;4895334;29;20274;-73
2023/10/01 01:14:37;;;;;;;9.83;5.60;;;;;;;;;;4892794;29;20194;-73
2023/10/01 01:17:06;;;;;;;10.17;6.50;;;;;;;;;;4897587;29;20310;-73
2023/10/01 01:19:35;;;;;;;9.00;6.70;;;;;;;;;;4897405;29;20301;-74
2023/10/01 01:22:01;;;;;;;9.83;5.70;;;;;;;;;;4895704;29;20234;-73
2023/10/01 01:24:29;;;;;;;8.10;6.30;;;;;;;;;;4898577;29;20567;-73
2023/10/01 01:27:00;;;;;;;8.30;5.80;;;;;;;;;;4894708;29;20549;-73
2023/10/01 01:29:30;;;;;;;9.47;6.63;;;;;;;;;;4893083;29;20683;-73
2023/10/01 01:34:56;;;;;;;8.97;6.30;;;;;;;;;;4873756;29;20580;-74
2023/10/01 01:37:46;;;;;;;8.93;6.40;;;;;;;;;;4897846;29;20214;-74
2023/10/01 01:40:24;;;;;;;9.10;6.27;;;;;;;;;;4893818;29;20634;-74
2023/10/01 01:42:51;;;;;;;8.00;6.23;;;;;;;;;;4897441;29;20202;-74
2023/10/01 01:45:25;;;;;;;7.60;5.90;;;;;;;;;;4894220;29;20213;-74
2023/10/01 01:47:51;;;;;;;9.33;5.97;;;;;;;;;;4893932;29;20192;-74
2023/10/01 01:50:26;;;;;;;10.33;6.57;;;;;;;;;;4892271;29;20764;-74
2023/10/01 01:52:52;;;;;;;8.63;6.30;;;;;;;;;;4894154;29;20233;-74
2023/10/01 01:55:34;;;;;;;10.03;6.33;;;;;;;;;;4899228;29;20218;-74
2023/10/01 01:58:08;;;;;;;9.57;6.57;;;;;;;;;;4889223;29;20619;-74
2023/10/01 02:00:37;;;;;;;9.77;6.10;;;;;;;;;;4891982;29;20210;-74
2023/10/01 02:03:14;;;;;;;8.17;5.93;;;;;;;;;;4889981;29;20698;-74
2023/10/01 02:05:41;;;;;;;10.83;6.50;;;;;;;;;;4892264;29;20182;-74
2023/10/01 02:08:23;;;;;;;9.10;6.23;;;;;;;;;;4894729;29;20190;-74
2023/10/01 02:10:50;;;;;;;9.23;6.23;;;;;;;;;;4895764;29;20290;-74
2023/10/01 02:13:17;;;;;;;9.07;6.17;;;;;;;;;;4895669;29;20188;-74
2023/10/01 02:15:46;;;;;;;10.20;6.23;;;;;;;;;;4895509;29;20196;-74
2023/10/01 02:18:16;;;;;;;9.60;6.00;;;;;;;;;;4895053;29;20219;-74
2023/10/01 02:20:51;;;;;;;8.10;6.00;;;;;;;;;;4897723;29;20259;-74
2023/10/01 02:23:25;;;;;;;7.87;6.10;;;;;;;;;;4897381;29;20187;-74
2023/10/01 02:26:00;;;;;;;8.77;6.47;;;;;;;;;;4895205;29;20185;-74
2023/10/01 02:28:26;;;;;;;8.80;6.00;;;;;;;;;;4894397;29;20206;-74
2023/10/01 02:31:06;;;;;;;9.33;6.73;;;;;;;;;;4892459;29;21002;-74
2023/10/01 02:36:22;;;;;;;8.30;5.90;;;;;;;;;;4893537;29;20210;-74
2023/10/01 02:38:53;;;;;;;8.50;6.50;;;;;;;;;;4894660;29;20190;-74
2023/10/01 02:41:26;;;;;;;8.40;5.90;;;;;;;;;;4896722;29;20556;-74
2023/10/01 02:43:53;;;;;;;9.27;6.57;;;;;;;;;;4887262;29;20574;-74
2023/10/01 02:46:26;;;;;;;9.33;6.53;;;;;;;;;;4892014;29;20187;-74
2023/10/01 02:48:59;;;;;;;7.53;5.60;;;;;;;;;;4891130;29;20194;-74
2023/10/01 02:51:38;;;;;;;10.33;5.93;;;;;;;;;;4892554;29;20194;-74
2023/10/01 02:54:05;;;;;;;8.20;6.17;;;;;;;;;;4891091;29;20198;-74
2023/10/01 02:56:52;;;;;;;8.83;5.90;;;;;;;;;;4894355;29;20222;-74
2023/10/01 02:59:19;;;;;;;9.13;5.80;;;;;;;;;;4892968;29;20645;-74
2023/10/01 03:01:46;;;;;;;10.70;6.00;;;;;;;;;;4897304;29;20266;-74
2023/10/01 03:04:15;;;;;;;8.17;5.60;;;;;;;;;;4894311;29;20191;-73
2023/10/01 03:06:47;;;;;;;12.37;6.50;;;;;;;;;;4896084;29;20191;-73
2023/10/01 03:09:29;;;;;;;8.63;5.93;;;;;;;;;;4910255;29;20219;-74
2023/10/01 03:12:24;;;;;;;9.23;5.87;;;;;;;;;;4908703;29;20202;-74
2023/10/01 03:14:44;;;;;;;8.67;5.77;;;;;;;;;;4894681;29;20228;-74
2023/10/01 03:17:17;;;;;;;7.60;5.70;;;;;;;;;;4896330;29;20665;-74
2023/10/01 03:19:52;;;;;;;9.40;6.07;;;;;;;;;;4892956;29;20206;-74
2023/10/01 03:22:23;;;;;;;8.17;5.80;;;;;;;;;;4897847;29;20179;-74
2023/10/01 03:24:52;;;;;;;11.77;5.90;;;;;;;;;;4893451;29;20338;-74
2023/10/01 03:27:20;;;;;;;9.30;6.10;;;;;;;;;;4898573;29;20187;-74
2023/10/01 03:29:53;;;;;;;7.87;5.50;;;;;;;;;;4899506;29;20587;-74
2023/10/01 03:32:29;;;;;;;9.03;6.40;;;;;;;;;;4899396;29;20187;-74
2023/10/01 03:35:04;;;;;;;8.70;6.07;;;;;;;;;;4901505;29;20195;-74
2023/10/01 03:37:37;;;;;;;6.50;5.47;;;;;;;;;;4898350;29;20221;-74
2023/10/01 03:40:10;;;;;;;7.87;5.57;;;;;;;;;;4900771;29;20219;-74
2023/10/01 03:42:37;;;;;;;8.67;5.83;;;;;;;;;;4900979;29;20186;-74
2023/10/01 03:45:36;;;;;;;9.53;5.73;;;;;;;;;;4899226;29;20191;-74
2023/10/01 03:48:06;;;;;;;8.80;5.50;;;;;;;;;;4899101;29;20191;-74
2023/10/01 03:50:44;;;;;;;8.23;5.50;;;;;;;;;;4898545;29;20734;-74
2023/10/01 03:53:11;;;;;;;9.50;5.80;;;;;;;;;;4897248;29;20572;-74
2023/10/01 03:55:39;;;;;;;8.87;5.67;;;;;;;;;;4898918;29;20191;-74
2023/10/01 03:58:18;;;;;;;7.13;5.67;;;;;;;;;;4899042;29;20214;-74
2023/10/01 04:00:53;;;;;;;8.57;5.73;;;;;;;;;;4897609;29;20346;-74
2023/10/01 04:03:21;;;;;;;9.80;5.70;;;;;;;;;;4896860;29;20175;-74
2023/10/01 04:05:56;;;;;;;11.03;6.60;;;;;;;;;;4895084;29;20188;-74
2023/10/01 04:08:23;;;;;;;8.50;5.97;;;;;;;;;;4894874;29;20342;-74
2023/10/01 04:10:58;;;;;;;9.27;6.20;;;;;;;;;;4894926;29;20210;-74
2023/10/01 04:13:24;;;;;;;8.97;5.67;;;;;;;;;;4893234;29;20638;-73
2023/10/01 04:15:57;;;;;;;8.13;5.87;;;;;;;;;;4897991;29;20716;-74
2023/10/01 04:18:28;;;;;;;8.20;5.43;;;;;;;;;;4899180;29;20211;-74
2023/10/01 04:23:31;;;;;;;9.10;6.10;;;;;;;;;;4893577;29;20229;-74
2023/10/01 04:26:04;;;;;;;9.57;5.93;;;;;;;;;;4891941;29;20799;-74
2023/10/01 04:28:36;;;;;;;10.33;6.50;;;;;;;;;;4898392;29;20590;-74
2023/10/01 04:31:09;;;;;;;8.20;5.80;;;;;;;;;;4899694;29;20309;-74
2023/10/01 04:33:36;;;;;;;8.80;5.80;;;;;;;;;;4896893;29;20223;-74
2023/10/01 04:36:04;;;;;;;9.43;6.03;;;;;;;;;;4898272;29;20758;-74
2023/10/01 04:38:32;;;;;;;8.97;5.80;;;;;;;;;;4895438;29;20696;-74
2023/10/01 04:41:03;;;;;;;8.33;5.73;;;;;;;;;;4896612;29;20223;-74
2023/10/01 04:43:34;;;;;;;7.77;5.70;;;;;;;;;;4898676;29;20199;-74
2023/10/01 04:46:08;;;;;;;8.70;6.23;;;;;;;;;;4896248;29;20210;-74
2023/10/01 04:48:39;;;;;;;8.83;5.90;;;;;;;;;;4896252;29;20561;-74
2023/10/01 04:51:08;;;;;;;8.37;5.53;;;;;;;;;;4897705;29;20210;-74
2023/10/01 04:53:35;;;;;;;8.93;5.80;;;;;;;;;;4899639;29;20246;-74
2023/10/01 04:56:01;;;;;;;7.87;5.10;;;;;;;;;;4899617;29;20191;-74
2023/10/01 04:58:37;;;;;;;8.87;5.43;;;;;;;;;;4893590;29;20216;-74
2023/10/01 05:01:07;;;;;;;7.37;5.50;;;;;;;;;;4893962;29;20202;-74
2023/10/01 05:03:39;;;;;;;7.83;5.93;;;;;;;;;;4913490;29;20207;-74
2023/10/01 05:06:08;;;;;;;8.40;5.27;;;;;;;;;;4896901;29;20191;-74
2023/10/01 05:08:38;;;;;;;7.47;5.10;;;;;;;;;;4898682;29;20203;-74
2023/10/01 05:11:04;;;;;;;8.87;6.17;;;;;;;;;;4894880;29;20191;-74
2023/10/01 05:13:31;;;;;;;8.97;5.47;;;;;;;;;;4895203;29;20653;-74
2023/10/01 05:15:57;;;;;;;8.27;5.83;;;;;;;;;;4891952;29;20198;-74
2023/10/01 05:18:27;;;;;;;8.13;5.87;;;;;;;;;;4896551;29;20214;-74
2023/10/01 05:20:58;;;;;;;9.17;6.03;;;;;;;;;;4892248;29;20210;-74
2023/10/01 05:23:27;;;;;;;11.17;6.47;;;;;;;;;;4896016;29;20191;-73
2023/10/01 05:25:56;;;;;;;10.00;6.10;;;;;;;;;;4895564;29;20716;-74
2023/10/01 05:28:31;;;;;;;9.73;6.10;;;;;;;;;;4891518;29;20683;-74
2023/10/01 05:31:06;;;;;;;9.17;6.07;;;;;;;;;;4892717;29;20679;-74
2023/10/01 05:33:35;;;;;;;8.10;5.70;;;;;;;;;;4893406;29;20219;-74
2023/10/01 05:36:05;;;;;;;8.67;6.20;;;;;;;;;;4894093;29;20210;-74
2023/10/01 05:38:35;;;;;;;8.97;6.20;;;;;;;;;;4896219;29;20222;-74
2023/10/01 05:41:04;;;;;;;8.27;6.47;;;;;;;;;;4895315;29;20699;-74
2023/10/01 05:43:35;;;;;;;9.13;6.37;;;;;;;;;;4893831;29;20226;-74
2023/10/01 05:46:02;;;;;;;9.80;6.53;;;;;;;;;;4897132;29;20183;-74
2023/10/01 05:48:29;;;;;;;8.97;6.97;;;;;;;;;;4897144;29;20194;-74
2023/10/01 05:50:58;;;;;;;8.73;6.57;;;;;;;;;;4898104;29;20717;-74
2023/10/01 05:53:25;;;;;;;10.30;7.00;;;;;;;;;;4892403;29;20274;-74
2023/10/01 05:55:51;;;;;;;8.83;6.67;;;;;;;;;;4888903;29;20254;-74
2023/10/01 05:58:17;;;;;;;9.00;6.43;;;;;;;;;;4894384;29;20207;-74
2023/10/01 06:00:56;;;;;;;10.37;6.70;;;;;;;;;;4894115;29;20864;-74
2023/10/01 06:03:26;;;;;;;9.10;5.90;;;;;;;;;;4895818;29;20198;-74
2023/10/01 06:05:58;;;;;;;8.30;6.00;;;;;;;;;;4894086;29;20183;-74
2023/10/01 06:08:25;;;;;;;9.33;6.17;;;;;;;;;;4896061;29;20327;-74
2023/10/01 06:10:59;;;;;;;8.37;6.27;;;;;;;;;;4897642;29;20207;-74
2023/10/01 06:13:31;;;;;;;10.43;6.00;;;;;;;;;;4895835;29;20260;-74
2023/10/01 06:15:57;;;;;;;9.77;6.10;;;;;;;;;;4890483;29;20291;-74
2023/10/01 06:18:25;;;;;;;11.17;5.93;;;;;;;;;;4895838;29;20580;-74
2023/10/01 06:20:51;;;;;;;9.40;6.33;;;;;;;;;;4897718;29;20238;-74
2023/10/01 06:23:17;;;;;;;7.33;5.67;;;;;;;;;;4896860;29;20674;-74
2023/10/01 06:25:51;;;;;;;9.13;5.93;;;;;;;;;;4896308;29;20183;-74
2023/10/01 06:28:20;;;;;;;8.73;5.90;;;;;;;;;;4894566;29;20191;-74
2023/10/01 06:30:48;;;;;;;8.37;5.73;;;;;;;;;;4896345;29;20817;-74
2023/10/01 06:33:29;;;;;;;9.97;6.50;;;;;;;;;;4894783;29;20219;-77
2023/10/01 06:38:41;;;;;;;8.90;6.20;;;;;;;;;;4880892;29;20217;-77
2023/10/01 06:41:13;;;;;;;8.63;6.30;;;;;;;;;;4893216;29;20247;-78
2023/10/01 06:43:49;;;;;;;9.07;5.80;;;;;;;;;;4893389;29;20206;-76
2023/10/01 06:46:15;;;;;;;7.23;5.63;;;;;;;;;;4895422;29;20191;-77
2023/10/01 06:48:42;;;;;;;7.43;5.50;;;;;;;;;;4895541;29;20286;-78
2023/10/01 06:51:08;;;;;;;8.93;5.87;;;;;;;;;;4895044;29;20267;-78
2023/10/01 06:53:45;;;;;;;8.27;5.93;;;;;;;;;;4894067;29;20204;-76
2023/10/01 06:56:15;;;;;;;9.50;6.07;;;;;;;;;;4898414;29;20197;-75
2023/10/01 06:58:41;;;;;;;8.90;5.60;;;;;;;;;;4897151;29;20310;-76
2023/10/01 07:01:34;;;;;;;10.80;6.37;;;;;;;;;;4897355;29;20230;-77
2023/10/01 07:03:57;;;;;;;10.57;6.27;;;;;;;;;;4896628;29;20191;-77
2023/10/01 07:06:23;;;;;;;10.27;6.07;;;;;;;;;;4902949;29;20191;-77
2023/10/01 07:08:49;;;;;;;9.37;5.50;;;;;;;;;;4902259;29;20187;-77
2023/10/01 07:11:18;;;;;;;8.43;5.53;;;;;;;;;;4902541;29;20179;-77
2023/10/01 07:13:44;;;;;;;8.60;6.00;;;;;;;;;;4901413;29;20195;-77
2023/10/01 07:16:10;;;;;;;8.37;6.03;;;;;;;;;;4903923;29;20236;-77
2023/10/01 07:18:39;;;;;;;8.93;6.47;;;;;;;;;;4903244;29;20227;-77
2023/10/01 07:21:11;;;;;;;9.00;6.50;;;;;;;;;;4903110;29;20187;-77
2023/10/01 07:23:38;;;;;;;10.47;6.43;;;;;;;;;;4899630;29;20192;-77
2023/10/01 07:26:12;;;;;;;8.87;6.30;;;;;;;;;;4901060;29;20235;-77
2023/10/01 07:28:41;;;;;;;10.83;6.50;;;;;;;;;;4900400;29;20195;-76
2023/10/01 07:31:08;;;;;;;8.17;5.47;;;;;;;;;;4899593;29;20195;-77
2023/10/01 07:33:34;;;;;;;8.70;5.77;;;;;;;;;;4903765;29;20191;-76
2023/10/01 07:36:00;;;;;;;10.47;6.63;;;;;;;;;;4899652;29;20226;-76
2023/10/01 07:38:31;;;;;;;11.13;7.07;;;;;;;;;;4900510;29;20212;-77
2023/10/01 07:40:57;;;;;;;11.03;7.03;;;;;;;;;;4897853;29;20199;-77
2023/10/01 07:43:27;;;;;;;10.37;7.30;;;;;;;;;;4899600;29;20650;-76
2023/10/01 07:46:02;;;;;;;11.00;6.33;;;;;;;;;;4907231;29;20191;-77
2023/10/01 07:48:29;;;;;;;9.07;6.63;;;;;;;;;;4898864;29;20267;-76
2023/10/01 07:50:55;;;;;;;9.97;6.53;;;;;;;;;;4888969;29;20211;-77
2023/10/01 07:53:32;;;;;;;9.37;6.33;;;;;;;;;;4898904;29;20382;-76
2023/10/01 07:56:02;;;;;;;11.30;6.50;;;;;;;;;;4894429;29;20730;-76
2023/10/01 07:58:47;;;;;;;12.07;6.97;;;;;;;;;;4896974;29;20219;-77
2023/10/01 08:04:06;;;;;;;9.60;6.77;;;;;;;;;;4892950;29;20220;-77
2023/10/01 08:06:41;;;;;;;10.97;6.80;;;;;;;;;;4896716;29;20206;-76
2023/10/01 08:09:11;;;;;;;11.13;7.47;;;;;;;;;;4898082;29;20231;-76
2023/10/01 08:14:26;;;;;;;10.97;7.77;;;;;;;;;;4896744;29;20809;-76
2023/10/01 08:16:53;;;;;;;11.53;7.80;;;;;;;;;;4897983;29;20242;-76
2023/10/01 08:19:20;;;;;;;11.07;7.53;;;;;;;;;;4896865;29;20687;-76
2023/10/01 08:21:50;;;;;;;11.70;7.97;;;;;;;;;;4896818;29;20179;-76
2023/10/01 08:24:18;;;;;;;13.33;8.10;;;;;;;;;;4897914;29;20245;-76
2023/10/01 08:26:49;;;;;;;11.97;7.40;;;;;;;;;;4871802;29;20191;-76
2023/10/01 08:29:16;;;;;;;14.03;7.57;;;;;;;;;;4896636;29;20310;-77
2023/10/01 08:32:07;;;;;;;13.00;7.87;;;;;;;;;;4890623;29;20187;-77
2023/10/01 08:34:29;;;;;;;12.57;7.97;;;;;;;;;;4895247;29;20196;-76
2023/10/01 08:37:06;;;;;;;10.60;7.17;;;;;;;;;;4897573;29;20297;-76
2023/10/01 08:39:48;;;;;;;12.47;7.87;;;;;;;;;;4895369;29;20217;-76
2023/10/01 08:42:17;;;;;;;11.03;7.53;;;;;;;;;;4895293;29;20234;-76
2023/10/01 08:44:47;;;;;;;13.47;8.63;;;;;;;;;;4894638;29;20664;-76
2023/10/01 08:47:34;;;;;;;12.83;8.43;;;;;;;;;;4896752;29;20204;-77
2023/10/01 08:52:55;;;;;;;13.33;8.33;;;;;;;;;;4896932;29;20203;-77
2023/10/01 08:55:24;;;;;;;13.77;8.30;;;;;;;;;;4897481;29;20504;-76
2023/10/01 08:57:55;;;;;;;12.67;8.00;;;;;;;;;;4897465;29;20235;-77
2023/10/01 09:00:24;;;;;;;14.70;8.70;;;;;;;;;;4897480;29;20707;-77
2023/10/01 09:02:51;;;;;;;13.00;8.53;;;;;;;;;;4897947;29;20266;-77
2023/10/01 09:05:25;;;;;;;14.20;8.47;;;;;;;;;;4888737;29;20204;-78
2023/10/01 09:08:15;;;;;;;12.77;8.40;;;;;;;;;;4899042;29;20183;-77
2023/10/01 09:11:10;;;;;;;14.37;8.83;;;;;;;;;;4893959;29;20238;-77
2023/10/01 09:13:45;;;;;;;14.53;7.90;;;;;;;;;;4898313;29;20604;-77
2023/10/01 09:16:11;;;;;;;14.47;8.47;;;;;;;;;;4896721;29;20205;-77
2023/10/01 09:19:03;;;;;;;13.23;8.37;;;;;;;;;;4894205;29;20223;-77
2023/10/01 09:21:31;;;;;;;12.57;7.60;;;;;;;;;;4895877;29;20187;-77
2023/10/01 09:24:33;;;;;;;12.37;8.53;;;;;;;;;;4894497;29;20187;-77
2023/10/01 09:27:09;;;;;;;11.17;7.70;;;;;;;;;;4896309;29;20198;-77
2023/10/01 09:29:43;;;;;;;11.80;7.50;;;;;;;;;;4896399;29;20214;-77
2023/10/01 09:32:14;;;;;;;11.73;7.23;;;;;;;;;;4895572;29;20281;-77
2023/10/01 09:34:47;;;;;;;12.63;7.77;;;;;;;;;;4897080;29;20211;-77
2023/10/01 09:37:30;;;;;;;13.10;8.13;;;;;;;;;;4894893;29;20799;-77
2023/10/01 09:40:01;;;;;;;12.77;7.60;;;;;;;;;;4895548;29;20859;-77
2023/10/01 09:42:33;;;;;;;11.83;7.73;;;;;;;;;;4896703;29;20203;-77
2023/10/01 09:45:09;;;;;;;12.80;8.30;;;;;;;;;;4894629;29;20595;-77
2023/10/01 09:47:39;;;;;;;11.90;7.70;;;;;;;;;;4892856;29;20707;-77
2023/10/01 09:50:06;;;;;;;10.73;7.10;;;;;;;;;;4893434;29;20206;-77
2023/10/01 09:52:48;;;;;;;12.63;7.50;;;;;;;;;;4896525;29;20286;-77
2023/10/01 09:55:29;;;;;;;14.80;7.77;;;;;;;;;;4895675;29;20195;-77
2023/10/01 09:57:55;;;;;;;12.00;7.80;;;;;;;;;;4895848;29;20221;-77
2023/10/01 10:00:39;;;;;;;13.33;8.10;;;;;;;;;;4895044;29;20212;-77
2023/10/01 10:03:11;;;;;;;12.20;7.17;;;;;;;;;;4893725;29;20222;-77
2023/10/01 10:05:40;;;;;;;11.57;7.10;;;;;;;;;;4894219;29;20192;-77
2023/10/01 10:08:20;;;;;;;10.77;7.83;;;;;;;;;;4892821;29;20191;-77
2023/10/01 10:10:50;;;;;;;12.63;7.60;;;;;;;;;;4894439;29;20290;-78
2023/10/01 10:13:50;;;;;;;13.60;7.80;;;;;;;;;;4895271;29;20195;-77
2023/10/01 10:16:32;;;;;;;11.13;7.37;;;;;;;;;;4886525;29;20210;-77
2023/10/01 10:19:10;;;;;;;12.67;7.13;;;;;;;;;;4895896;29;20187;-77
2023/10/01 10:24:29;;;;;;;12.63;7.23;;;;;;;;;;4897224;29;20219;-77
2023/10/01 10:27:15;;;;;;;15.13;7.27;;;;;;;;;;4893380;29;20282;-77
2023/10/01 10:29:57;;;;;;;13.00;7.23;;;;;;;;;;4889391;29;20210;-78
2023/10/01 10:32:30;;;;;;;10.37;7.00;;;;;;;;;;4891553;29;20199;-76
2023/10/01 10:35:06;;;;;;;10.97;7.23;;;;;;;;;;4907406;29;20202;-77
2023/10/01 10:37:37;;;;;;;13.37;7.10;;;;;;;;;;4910015;29;20210;-77
2023/10/01 10:40:04;;;;;;;11.00;6.73;;;;;;;;;;4894588;29;20239;-76
2023/10/01 10:42:33;;;;;;;9.77;6.50;;;;;;;;;;4893992;29;20840;-76
2023/10/01 10:45:21;;;;;;;10.43;6.83;;;;;;;;;;4892627;29;20179;-76
2023/10/01 10:47:58;;;;;;;11.83;7.20;;;;;;;;;;4894996;29;20195;-77
2023/10/01 10:50:45;;;;;;;10.80;7.10;;;;;;;;;;4907532;29;20712;-76
2023/10/01 10:53:19;;;;;;;11.47;7.30;;;;;;;;;;4894267;29;20226;-76
2023/10/01 10:56:05;;;;;;;10.53;6.53;;;;;;;;;;4894091;29;20269;-76
2023/10/01 10:58:37;;;;;;;9.63;6.47;;;;;;;;;;4893455;29;20587;-76
2023/10/01 11:01:16;;;;;;;12.30;7.00;;;;;;;;;;4894508;29;20661;-76
2023/10/01 11:03:50;;;;;;;10.83;6.30;;;;;;;;;;4894746;29;20439;-76
2023/10/01 11:07:01;;;;;;;9.93;6.23;;;;;;;;;;4893097;29;20207;-76
2023/10/01 11:09:30;;;;;;;9.90;6.17;;;;;;;;;;4893937;29;20579;-76
2023/10/01 11:12:08;;;;;;;12.27;6.30;;;;;;;;;;4894377;29;20216;-76
2023/10/01 11:14:35;;;;;;;10.80;6.20;;;;;;;;;;4893112;29;20195;-76
2023/10/01 11:17:01;;;;;;;9.40;6.30;;;;;;;;;;4892705;29;20717;-76
2023/10/01 11:19:35;;;;;;;9.73;6.80;;;;;;;;;;4893647;29;20562;-76
2023/10/01 11:22:03;;;;;;;10.63;6.20;;;;;;;;;;4892674;29;20597;-75
2023/10/01 11:24:39;;;;;;;11.27;6.33;;;;;;;;;;4889926;29;20183;-77
2023/10/01 11:27:25;;;;;;;10.43;6.60;;;;;;;;;;4890786;29;20225;-76
2023/10/01 11:30:13;;;;;;;9.63;6.20;;;;;;;;;;4891703;29;20214;-76
2023/10/01 11:35:34;;;;;;;9.37;6.53;;;;;;;;;;4891317;29;20261;-76
2023/10/01 11:38:19;;;;;;;10.27;6.00;;;;;;;;;;4891958;29;20296;-76
2023/10/01 11:43:38;;;;;;;8.50;5.63;;;;;;;;;;4890350;29;20207;-76
2023/10/01 11:46:25;;;;;;;10.30;6.17;;;;;;;;;;4891142;29;20191;-77
2023/10/01 11:49:04;;;;;;;10.87;5.90;;;;;;;;;;4892727;29;20246;-77
2023/10/01 11:52:01;;;;;;;8.93;6.17;;;;;;;;;;4893801;29;20179;-76
2023/10/01 11:57:35;;;;;;;9.87;6.13;;;;;;;;;;4856674;29;20232;-77
2023/10/01 12:00:03;;;;;;;9.53;6.37;;;;;;;;;;4895224;29;20208;-77
2023/10/01 12:02:43;;;;;;;9.47;6.57;;;;;;;;;;4894488;29;20211;-76
2023/10/01 12:05:13;;;;;;;10.17;5.90;;;;;;;;;;4895087;29;20182;-76
2023/10/01 12:07:40;;;;;;;7.07;5.30;;;;;;;;;;4895249;29;20198;-77
2023/10/01 12:10:07;;;;;;;10.10;5.50;;;;;;;;;;4894936;29;20292;-76
2023/10/01 12:12:37;;;;;;;10.67;6.50;;;;;;;;;;4894712;29;20192;-76
2023/10/01 12:17:48;;;;;;;8.83;6.00;;;;;;;;;;4894457;29;20742;-76
2023/10/01 12:20:28;;;;;;;9.00;6.00;;;;;;;;;;4890252;29;20697;-76
2023/10/01 12:23:10;;;;;;;9.47;6.73;;;;;;;;;;4894340;29;20205;-76
2023/10/01 12:25:53;;;;;;;8.57;5.90;;;;;;;;;;4892174;29;20274;-76
2023/10/01 12:28:29;;;;;;;10.07;6.80;;;;;;;;;;4893772;29;20195;-76
2023/10/01 12:30:57;;;;;;;9.63;6.83;;;;;;;;;;4891935;29;20250;-77
2023/10/01 12:33:41;;;;;;;9.13;6.63;;;;;;;;;;4901456;29;20668;-77
2023/10/01 12:36:31;;;;;;;10.37;7.07;;;;;;;;;;4897313;29;20600;-76
2023/10/01 12:44:25;;;;;;;10.20;6.60;;;;;;;;;;4894669;29;20199;-77
2023/10/01 12:46:54;;;;;;;11.17;7.10;;;;;;;;;;4887533;29;20195;-76
2023/10/01 12:49:23;;;;;;;9.20;6.80;;;;;;;;;;4891076;29;20201;-77
2023/10/01 12:51:53;;;;;;;10.03;7.23;;;;;;;;;;4892887;29;20252;-76
2023/10/01 12:54:22;;;;;;;10.33;6.97;;;;;;;;;;4895252;29;20180;-77
2023/10/01 12:57:02;;;;;;;10.33;7.10;;;;;;;;;;4895154;29;20286;-77
2023/10/01 13:00:21;;;;;;;9.63;7.00;;;;;;;;;;4894269;29;20243;-76
2023/10/01 13:02:42;;;;;;;10.10;7.37;;;;;;;;;;4895104;29;20202;-76
2023/10/01 13:05:22;;;;;;;8.40;6.73;;;;;;;;;;4894453;29;20193;-76
2023/10/01 13:07:52;;;;;;;9.70;7.00;;;;;;;;;;4894946;29;20232;-76
2023/10/01 13:10:33;;;;;;;9.67;7.10;;;;;;;;;;4894522;29;20207;-79
2023/10/01 13:13:01;;;;;;;9.57;7.30;;;;;;;;;;4889958;29;20196;-78
2023/10/01 13:15:33;;;;;;;9.50;7.07;;;;;;;;;;4896456;29;20198;-76
2023/10/01 13:18:04;;;;;;;9.07;7.00;;;;;;;;;;4889650;29;20251;-77
2023/10/01 13:20:46;;;;;;;9.43;7.67;;;;;;;;;;4893375;29;20220;-76
2023/10/01 13:23:12;;;;;;;10.73;7.93;;;;;;;;;;4893790;29;20300;-76
2023/10/01 13:25:47;;;;;;;9.77;7.60;;;;;;;;;;4895906;29;20656;-76
2023/10/01 13:28:20;;;;;;;10.07;6.97;;;;;;;;;;4894785;29;20597;-77
2023/10/01 13:33:29;;;;;;;10.23;6.90;;;;;;;;;;4890163;29;20337;-76
2023/10/01 13:36:12;;;;;;;9.33;7.20;;;;;;;;;;4893675;29;20374;-77
2023/10/01 13:38:56;;;;;;;9.67;7.20;;;;;;;;;;4892260;29;20223;-78
2023/10/01 14:08:45;;;;;;;9.10;7.03;;;;;;;;;;4908812;29;20195;-76
2023/10/01 14:11:13;;;;;;;9.93;7.90;;;;;;;;;;4888389;29;20241;-76
2023/10/01 14:13:41;;;;;;;8.63;7.10;;;;;;;;;;4896121;29;20658;-78
2023/10/01 14:16:11;;;;;;;9.37;7.00;;;;;;;;;;4904031;29;20194;-76
2023/10/01 14:18:53;;;;;;;10.27;7.47;;;;;;;;;;4891393;29;20201;-77
2023/10/01 14:21:27;;;;;;;9.30;7.47;;;;;;;;;;4890682;29;20225;-79
2023/10/01 14:23:57;;;;;;;11.63;7.10;;;;;;;;;;4896156;29;20684;-77
2023/10/01 14:26:33;;;;;;;9.53;7.53;;;;;;;;;;4895659;29;20191;-77
2023/10/01 14:29:00;;;;;;;9.30;7.00;;;;;;;;;;4890984;29;20226;-76
2023/10/01 14:31:41;;;;;;;11.43;7.60;;;;;;;;;;4893587;29;20228;-76
2023/10/01 14:34:08;;;;;;;7.93;6.80;;;;;;;;;;4884837;29;20194;-78
2023/10/01 14:36:39;;;;;;;9.90;7.20;;;;;;;;;;4891965;29;20186;-76
2023/10/01 14:39:09;;;;;;;9.17;7.27;;;;;;;;;;4889183;29;20242;-77
2023/10/01 14:41:42;;;;;;;10.13;7.57;;;;;;;;;;4881379;29;20251;-76
2023/10/01 14:44:08;;;;;;;11.17;8.57;;;;;;;;;;4884863;29;20615;-76
2023/10/01 14:46:37;;;;;;;9.40;7.40;;;;;;;;;;4890202;29;20187;-76
2023/10/01 14:49:07;;;;;;;10.10;8.00;;;;;;;;;;4889861;29;20629;-77
2023/10/01 14:51:33;;;;;;;10.00;7.43;;;;;;;;;;4889184;29;20222;-77
2023/10/01 14:54:00;;;;;;;9.57;6.93;;;;;;;;;;4890277;29;20193;-77
2023/10/01 14:56:34;;;;;;;9.70;7.60;;;;;;;;;;4889042;29;20186;-76
2023/10/01 14:59:00;;;;;;;9.63;7.90;;;;;;;;;;4889329;29;20226;-76
2023/10/01 15:01:36;;;;;;;10.50;7.40;;;;;;;;;;4889670;29;20204;-76
2023/10/01 15:04:17;;;;;;;10.87;8.00;;;;;;;;;;4886514;29;20278;-76
2023/10/01 15:07:00;;;;;;;10.00;7.73;;;;;;;;;;4891099;29;20196;-77
2023/10/01 15:09:28;;;;;;;11.73;8.47;;;;;;;;;;4888305;29;20284;-76
2023/10/01 15:11:55;;;;;;;13.10;7.90;;;;;;;;;;4888309;29;20581;-76
2023/10/01 15:14:39;;;;;;;10.97;7.90;;;;;;;;;;4890733;29;20987;-79
2023/10/01 15:17:07;;;;;;;10.87;7.70;;;;;;;;;;4891075;29;20574;-75
2023/10/01 15:19:46;;;;;;;11.10;7.77;;;;;;;;;;4886672;29;20215;-79
2023/10/01 15:22:16;;;;;;;13.00;8.17;;;;;;;;;;4891931;29;20249;-75
2023/10/01 15:24:43;;;;;;;10.27;7.20;;;;;;;;;;4893151;29;20183;-76
2023/10/01 15:27:09;;;;;;;11.03;7.37;;;;;;;;;;4892675;29;20613;-76
2023/10/01 15:29:35;;;;;;;11.60;8.13;;;;;;;;;;4892656;29;20315;-77
2023/10/01 15:32:14;;;;;;;11.90;8.30;;;;;;;;;;4893373;29;20252;-77
2023/10/01 15:34:41;;;;;;;11.90;8.10;;;;;;;;;;4895020;29;20768;-76
2023/10/01 15:37:11;;;;;;;9.80;7.03;;;;;;;;;;4894911;29;20222;-74
2023/10/01 15:39:38;;;;;;;13.03;7.70;;;;;;;;;;4895053;29;20236;-76
2023/10/01 15:42:11;;;;;;;11.33;7.40;;;;;;;;;;4893306;29;20209;-75
2023/10/01 15:44:44;;;;;;;11.63;7.50;;;;;;;;;;4893617;29;20741;-76
2023/10/01 15:47:25;;;;;;;9.90;6.80;;;;;;;;;;4895914;29;20246;-75
2023/10/01 15:50:05;;;;;;;10.60;6.93;;;;;;;;;;4892367;29;20223;-80
2023/10/01 15:52:37;;;;;;;10.43;6.87;;;;;;;;;;4893362;29;20226;-81
2023/10/01 15:55:06;;;;;;;11.00;7.20;;;;;;;;;;4894591;29;20203;-74
2023/10/01 15:57:36;;;;;;;10.37;7.00;;;;;;;;;;4892618;29;20487;-73
2023/10/01 16:00:49;;;;;;;12.47;7.43;;;;;;;;;;4892691;29;20657;-74
2023/10/01 16:03:08;;;;;;;10.77;6.97;;;;;;;;;;4889706;29;20217;-74
2023/10/01 16:05:42;;;;;;;9.43;7.00;;;;;;;;;;4895982;29;20186;-76
2023/10/01 16:08:08;;;;;;;9.23;6.80;;;;;;;;;;4891585;29;20573;-76
2023/10/01 16:10:43;;;;;;;10.27;7.20;;;;;;;;;;4890752;29;20214;-75
2023/10/01 16:13:14;;;;;;;11.10;7.57;;;;;;;;;;4896423;29;20659;-76
2023/10/01 16:15:44;;;;;;;10.97;7.10;;;;;;;;;;4896809;29;20277;-74
2023/10/01 16:18:14;;;;;;;9.37;6.70;;;;;;;;;;4897256;29;20815;-77